Time;durP1;ratioP1;P1;durP2;ratioP2;P2;SDS_P1;SDS_P2;PMS_P1;PMS_P2;Temp;Humidity;BMP_temperature;BMP_pressure;BME280_temperature;BME280_humidity;BME280_pressure;Samples;Min_cycle;Max_cycle;Signal;HPM_P1;HPM_P2
2022/12/09 00:00:26;;;;;;;;;32.00;30.00;;;;;-147.17;100.00;-15917.19;5020936;28;51154;-55
2022/12/09 00:02:51;;;;;;;;;30.25;28.00;;;;;-147.17;100.00;-15917.19;5032287;28;52852;-53
2022/12/09 00:05:16;;;;;;;;;34.25;31.50;;;;;-147.17;100.00;-15917.19;5030036;28;51787;-52
2022/12/09 00:07:42;;;;;;;;;34.25;32.25;;;;;-147.17;100.00;-15917.19;5029918;28;51153;-52
2022/12/09 00:10:07;;;;;;;;;36.25;31.50;;;;;-147.17;100.00;-15917.19;5032983;28;51253;-53
2022/12/09 00:12:33;;;;;;;;;31.00;26.75;;;;;-147.17;100.00;-15917.19;5042288;28;51220;-55
2022/12/09 00:14:58;;;;;;;;;38.00;31.50;;;;;-147.17;100.00;-15917.19;5033707;28;51971;-54
2022/12/09 00:17:24;;;;;;;;;35.75;31.75;;;;;-147.17;100.00;-15917.19;5032911;28;51153;-51
2022/12/09 00:19:49;;;;;;;;;29.00;28.75;;;;;-147.17;100.00;-15917.19;5033226;28;51823;-52
2022/12/09 00:22:14;;;;;;;;;32.25;30.75;;;;;-147.17;100.00;-15917.19;5030655;28;51022;-55
2022/12/09 00:24:40;;;;;;;;;33.00;31.25;;;;;-147.17;100.00;-15917.19;5017378;28;52924;-54
2022/12/09 00:27:05;;;;;;;;;37.25;33.50;;;;;-147.17;100.00;-15917.19;5022132;28;51294;-52
2022/12/09 00:29:30;;;;;;;;;39.50;34.00;;;;;-147.17;100.00;-15917.19;5022285;28;51114;-53
2022/12/09 00:31:56;;;;;;;;;39.00;32.00;;;;;-147.17;100.00;-15917.19;5032747;28;51118;-53
2022/12/09 00:34:21;;;;;;;;;37.25;36.75;;;;;-147.17;100.00;-15917.19;5032409;28;51095;-51
2022/12/09 00:36:46;;;;;;;;;41.50;37.50;;;;;-147.17;100.00;-15917.19;5032962;28;51010;-50
2022/12/09 00:39:12;;;;;;;;;42.00;37.50;;;;;-147.17;100.00;-15917.19;5033871;28;51231;-53
2022/12/09 00:41:38;;;;;;;;;45.75;37.25;;;;;-147.17;100.00;-15917.19;5026691;28;51268;-51
2022/12/09 00:44:04;;;;;;;;;38.25;35.50;;;;;-147.17;100.00;-15917.19;5029660;28;51030;-53
2022/12/09 00:46:29;;;;;;;;;45.75;42.25;;;;;-147.17;100.00;-15917.19;5032321;28;50907;-54
2022/12/09 00:48:55;;;;;;;;;47.50;38.50;;;;;-147.17;100.00;-15917.19;5031656;28;51295;-51
2022/12/09 00:51:23;;;;;;;;;45.75;39.75;;;;;-147.17;100.00;-15917.19;5033459;28;51100;-51
2022/12/09 00:53:53;;;;;;;;;37.00;34.00;;;;;-147.17;100.00;-15917.19;5028882;28;53838;-54
2022/12/09 00:56:20;;;;;;;;;41.25;36.25;;;;;-147.17;100.00;-15917.19;5033462;28;51046;-54
2022/12/09 00:58:45;;;;;;;;;59.00;43.25;;;;;-147.17;100.00;-15917.19;5018988;28;51278;-52
2022/12/09 01:01:11;;;;;;;;;35.00;32.25;;;;;-147.17;100.00;-15917.19;5033661;28;51171;-53
2022/12/09 01:03:37;;;;;;;;;39.00;38.25;;;;;-147.17;100.00;-15917.19;5028196;28;51951;-53
2022/12/09 01:06:11;;;;;;;;;48.25;39.25;;;;;-147.17;100.00;-15917.19;5028683;28;50980;-55
2022/12/09 01:08:37;;;;;;;;;45.00;39.50;;;;;-147.17;100.00;-15917.19;5030690;28;52419;-53
2022/12/09 01:11:20;;;;;;;;;45.75;40.50;;;;;-147.17;100.00;-15917.19;5026299;28;51328;-52
2022/12/09 01:13:46;;;;;;;;;40.00;36.25;;;;;-147.17;100.00;-15917.19;5024806;28;52956;-51
2022/12/09 01:16:17;;;;;;;;;41.50;39.25;;;;;-147.17;100.00;-15917.19;5021425;28;51063;-53
2022/12/09 01:18:43;;;;;;;;;44.00;34.75;;;;;-147.17;100.00;-15917.19;5024986;28;51386;-54
2022/12/09 01:21:08;;;;;;;;;46.75;39.25;;;;;-147.17;100.00;-15917.19;5033139;28;51013;-52
2022/12/09 01:23:34;;;;;;;;;47.25;41.75;;;;;-147.17;100.00;-15917.19;5022834;28;51874;-52
2022/12/09 01:26:02;;;;;;;;;54.75;42.75;;;;;-147.17;100.00;-15917.19;5022701;28;51086;-54
2022/12/09 01:28:27;;;;;;;;;44.75;39.25;;;;;-147.17;100.00;-15917.19;5030376;28;51170;-50
2022/12/09 01:30:53;;;;;;;;;47.00;41.00;;;;;-147.17;100.00;-15917.19;5029846;28;51103;-50
2022/12/09 01:33:18;;;;;;;;;58.75;40.50;;;;;-147.17;100.00;-15917.19;5031931;28;51695;-50
2022/12/09 01:35:43;;;;;;;;;49.25;39.50;;;;;-147.17;100.00;-15917.19;5031634;28;51043;-52
2022/12/09 01:38:09;;;;;;;;;44.00;39.50;;;;;-147.17;100.00;-15917.19;5031534;28;51315;-51
2022/12/09 01:40:34;;;;;;;;;37.00;30.00;;;;;-147.17;100.00;-15917.19;5032669;28;51027;-52
2022/12/09 01:43:00;;;;;;;;;45.25;39.25;;;;;-147.17;100.00;-15917.19;5031386;28;51547;-58
2022/12/09 01:45:40;;;;;;;;;47.75;40.00;;;;;-147.17;100.00;-15917.19;5031355;28;50925;-52
2022/12/09 01:48:10;;;;;;;;;37.25;31.25;;;;;-147.17;100.00;-15917.19;5030268;28;51186;-51
2022/12/09 01:50:38;;;;;;;;;42.75;39.00;;;;;-147.17;100.00;-15917.19;5032138;28;51342;-51
2022/12/09 01:53:05;;;;;;;;;42.00;38.50;;;;;-147.17;100.00;-15917.19;5028520;28;52059;-53
2022/12/09 01:55:31;;;;;;;;;40.00;36.75;;;;;-147.17;100.00;-15917.19;5021720;28;51304;-53
2022/12/09 01:57:57;;;;;;;;;44.50;39.75;;;;;-147.17;100.00;-15917.19;5023308;28;51270;-57
2022/12/09 02:00:22;;;;;;;;;44.75;38.75;;;;;-147.17;100.00;-15917.19;5032878;28;51215;-54
2022/12/09 02:02:49;;;;;;;;;42.00;35.50;;;;;-147.17;100.00;-15917.19;5032030;28;51819;-53
2022/12/09 02:05:15;;;;;;;;;44.00;39.50;;;;;-147.17;100.00;-15917.19;5031506;28;51350;-54
2022/12/09 02:07:40;;;;;;;;;47.50;40.25;;;;;-147.17;100.00;-15917.19;5030101;28;51206;-53
2022/12/09 02:10:13;;;;;;;;;41.50;35.75;;;;;-147.17;100.00;-15917.19;5029360;28;50988;-54
2022/12/09 02:13:09;;;;;;;;;44.75;36.75;;;;;-147.17;100.00;-15917.19;5022441;28;51126;-51
2022/12/09 02:15:46;;;;;;;;;43.25;39.00;;;;;-147.17;100.00;-15917.19;5020869;28;51150;-51
2022/12/09 02:18:23;;;;;;;;;43.75;33.75;;;;;-147.17;100.00;-15917.19;5029397;28;51186;-52
2022/12/09 02:21:01;;;;;;;;;44.75;39.25;;;;;-147.17;100.00;-15917.19;5032206;28;51095;-50
2022/12/09 02:24:05;;;;;;;;;41.75;37.50;;;;;-147.17;100.00;-15917.19;5022317;28;54185;-52
2022/12/09 02:26:44;;;;;;;;;36.75;32.25;;;;;-147.17;100.00;-15917.19;5008350;28;51193;-51
2022/12/09 02:29:57;;;;;;;;;44.25;35.75;;;;;-147.17;100.00;-15917.19;5031124;28;51088;-52
2022/12/09 02:32:50;;;;;;;;;55.25;42.25;;;;;-147.17;100.00;-15917.19;5010777;28;51197;-52
2022/12/09 02:35:36;;;;;;;;;36.75;32.25;;;;;-147.17;100.00;-15917.19;5022608;28;51843;-51
2022/12/09 02:38:20;;;;;;;;;41.50;38.75;;;;;-147.17;100.00;-15917.19;5029566;28;51141;-53
2022/12/09 02:40:52;;;;;;;;;32.00;28.75;;;;;-147.17;100.00;-15917.19;5031637;28;51091;-51
2022/12/09 02:43:21;;;;;;;;;31.75;30.50;;;;;-147.17;100.00;-15917.19;5014769;28;51072;-52
2022/12/09 02:45:49;;;;;;;;;37.00;34.50;;;;;-147.17;100.00;-15917.19;5027958;28;52223;-52
2022/12/09 02:48:19;;;;;;;;;44.50;36.25;;;;;-147.17;100.00;-15917.19;5026763;28;51223;-52
2022/12/09 02:50:48;;;;;;;;;40.25;35.00;;;;;-147.17;100.00;-15917.19;5035017;28;51045;-53
2022/12/09 02:53:14;;;;;;;;;45.50;33.50;;;;;-147.17;100.00;-15917.19;5027122;28;51345;-53
2022/12/09 02:55:44;;;;;;;;;40.75;37.50;;;;;-147.17;100.00;-15917.19;5034256;28;51815;-53
2022/12/09 02:58:09;;;;;;;;;38.25;34.00;;;;;-147.17;100.00;-15917.19;5032346;28;51099;-52
2022/12/09 03:00:36;;;;;;;;;42.75;36.50;;;;;-147.17;100.00;-15917.19;5016049;28;51183;-53
2022/12/09 03:03:03;;;;;;;;;46.50;42.50;;;;;-147.17;100.00;-15917.19;5021388;28;51344;-52
2022/12/09 03:05:32;;;;;;;;;41.75;38.00;;;;;-147.17;100.00;-15917.19;5031372;28;52436;-51
2022/12/09 03:08:23;;;;;;;;;32.25;29.25;;;;;-147.17;100.00;-15917.19;5033128;28;51179;-52
2022/12/09 03:11:10;;;;;;;;;35.25;30.50;;;;;-147.17;100.00;-15917.19;5034732;28;50926;-51
2022/12/09 03:13:55;;;;;;;;;37.00;32.00;;;;;-147.17;100.00;-15917.19;5035105;28;50963;-53
2022/12/09 03:16:42;;;;;;;;;36.25;31.00;;;;;-147.17;100.00;-15917.19;5033813;28;51965;-51
2022/12/09 03:19:15;;;;;;;;;35.50;30.00;;;;;-147.17;100.00;-15917.19;5024733;28;50922;-51
2022/12/09 03:21:44;;;;;;;;;29.00;24.75;;;;;-147.17;100.00;-15917.19;5031010;28;50947;-51
2022/12/09 03:24:13;;;;;;;;;33.50;27.50;;;;;-147.17;100.00;-15917.19;5031725;28;52438;-51
2022/12/09 03:26:41;;;;;;;;;34.50;31.25;;;;;-147.17;100.00;-15917.19;5033081;28;53968;-50
2022/12/09 03:29:14;;;;;;;;;32.50;27.75;;;;;-147.17;100.00;-15917.19;5033466;28;51182;-53
2022/12/09 03:31:40;;;;;;;;;26.00;23.75;;;;;-147.17;100.00;-15917.19;5034250;28;51063;-53
2022/12/09 03:34:09;;;;;;;;;32.75;30.75;;;;;-147.17;100.00;-15917.19;5034644;28;50886;-51
2022/12/09 03:36:39;;;;;;;;;33.75;32.25;;;;;-147.17;100.00;-15917.19;5019923;28;51955;-53
2022/12/09 03:39:09;;;;;;;;;42.25;36.75;;;;;-147.17;100.00;-15917.19;5025165;28;51044;-53
2022/12/09 03:41:37;;;;;;;;;32.50;27.25;;;;;-147.17;100.00;-15917.19;5022265;28;51043;-53
2022/12/09 03:44:15;;;;;;;;;37.50;32.25;;;;;-147.17;100.00;-15917.19;5033735;28;51174;-52
2022/12/09 03:46:40;;;;;;;;;38.25;33.75;;;;;-147.17;100.00;-15917.19;5021800;28;52079;-51
2022/12/09 03:49:06;;;;;;;;;35.50;29.25;;;;;-147.17;100.00;-15917.19;5032925;28;51018;-52
2022/12/09 03:51:39;;;;;;;;;32.25;27.50;;;;;-147.17;100.00;-15917.19;5033465;28;50892;-53
2022/12/09 03:54:32;;;;;;;;;33.50;28.00;;;;;-147.17;100.00;-15917.19;5019254;28;53674;-52
2022/12/09 03:56:58;;;;;;;;;28.50;27.25;;;;;-147.17;100.00;-15917.19;5026391;28;51874;-50
2022/12/09 03:59:29;;;;;;;;;32.25;31.00;;;;;-147.17;100.00;-15917.19;5033135;28;51201;-52
2022/12/09 04:01:55;;;;;;;;;38.50;34.00;;;;;-147.17;100.00;-15917.19;5034063;28;51189;-52
2022/12/09 04:04:20;;;;;;;;;39.00;33.75;;;;;-147.17;100.00;-15917.19;5032484;28;51155;-53
2022/12/09 04:06:49;;;;;;;;;33.50;28.75;;;;;-147.17;100.00;-15917.19;5034127;28;51051;-53
2022/12/09 04:09:15;;;;;;;;;29.75;26.50;;;;;-147.17;100.00;-15917.19;5030330;28;51469;-52
2022/12/09 04:11:40;;;;;;;;;30.75;28.25;;;;;-147.17;100.00;-15917.19;5026594;28;51093;-53
2022/12/09 04:14:05;;;;;;;;;33.75;31.25;;;;;-147.17;100.00;-15917.19;5033286;28;51182;-52
2022/12/09 04:16:31;;;;;;;;;36.75;34.25;;;;;-147.17;100.00;-15917.19;5032723;28;51196;-50
2022/12/09 04:18:56;;;;;;;;;40.00;29.00;;;;;-147.17;100.00;-15917.19;5032908;28;51054;-53
2022/12/09 04:21:21;;;;;;;;;46.25;37.75;;;;;-147.17;100.00;-15917.19;5034041;28;50998;-51
2022/12/09 04:23:47;;;;;;;;;36.75;33.00;;;;;-147.17;100.00;-15917.19;5026886;28;50921;-52
2022/12/09 04:26:19;;;;;;;;;33.25;29.50;;;;;-147.17;100.00;-15917.19;5015901;28;51390;-51
2022/12/09 04:28:45;;;;;;;;;37.00;31.00;;;;;-147.17;100.00;-15917.19;5031776;28;51182;-51
2022/12/09 04:31:11;;;;;;;;;28.75;24.00;;;;;-147.17;100.00;-15917.19;5028402;28;51019;-53
2022/12/09 04:33:37;;;;;;;;;32.50;28.75;;;;;-147.17;100.00;-15917.19;5032467;28;51374;-52
2022/12/09 04:36:12;;;;;;;;;36.50;32.25;;;;;-147.17;100.00;-15917.19;5033434;28;51258;-52
2022/12/09 04:38:38;;;;;;;;;39.00;33.00;;;;;-147.17;100.00;-15917.19;5031368;28;50991;-53
2022/12/09 04:41:03;;;;;;;;;27.75;24.25;;;;;-147.17;100.00;-15917.19;5032421;28;51087;-51
2022/12/09 04:43:29;;;;;;;;;27.00;25.50;;;;;-147.17;100.00;-15917.19;5025805;28;51293;-51
2022/12/09 04:46:00;;;;;;;;;27.25;26.75;;;;;-147.17;100.00;-15917.19;5033332;28;51705;-51
2022/12/09 04:48:26;;;;;;;;;32.75;28.75;;;;;-147.17;100.00;-15917.19;5031569;28;51844;-51
2022/12/09 04:50:51;;;;;;;;;30.50;27.50;;;;;-147.17;100.00;-15917.19;5033309;28;50937;-49
2022/12/09 04:53:17;;;;;;;;;37.25;30.75;;;;;-147.17;100.00;-15917.19;5025108;28;50942;-52
2022/12/09 04:55:42;;;;;;;;;36.25;34.25;;;;;-147.17;100.00;-15917.19;5033227;28;51025;-51
2022/12/09 04:58:07;;;;;;;;;25.75;25.75;;;;;-147.17;100.00;-15917.19;5031231;28;51126;-54
2022/12/09 05:00:32;;;;;;;;;28.25;26.25;;;;;-147.17;100.00;-15917.19;5026379;28;50975;-51
2022/12/09 05:02:58;;;;;;;;;26.75;26.00;;;;;-147.17;100.00;-15917.19;5022794;28;51362;-51
2022/12/09 05:05:23;;;;;;;;;41.50;33.75;;;;;-147.17;100.00;-15917.19;5032671;28;51741;-54
2022/12/09 05:07:48;;;;;;;;;28.00;24.25;;;;;-147.17;100.00;-15917.19;5030788;28;50880;-53
2022/12/09 05:10:14;;;;;;;;;27.75;27.25;;;;;-147.17;100.00;-15917.19;5030494;28;51099;-51
2022/12/09 05:12:39;;;;;;;;;31.50;26.25;;;;;-147.17;100.00;-15917.19;5022237;28;51103;-54
2022/12/09 05:15:05;;;;;;;;;33.00;29.25;;;;;-147.17;100.00;-15917.19;5020012;28;51672;-49
2022/12/09 05:17:30;;;;;;;;;26.50;23.00;;;;;-147.17;100.00;-15917.19;5029967;28;51135;-52
2022/12/09 05:19:55;;;;;;;;;20.00;16.00;;;;;-147.17;100.00;-15917.19;5032038;28;51007;-53
2022/12/09 05:22:21;;;;;;;;;28.25;23.00;;;;;-147.17;100.00;-15917.19;5033150;28;51309;-51
2022/12/09 05:24:46;;;;;;;;;30.75;29.50;;;;;-147.17;100.00;-15917.19;5032692;28;52315;-53
2022/12/09 05:27:13;;;;;;;;;29.25;24.25;;;;;-147.17;100.00;-15917.19;5031511;28;51007;-54
2022/12/09 05:29:39;;;;;;;;;33.50;30.00;;;;;-147.17;100.00;-15917.19;5029634;28;51076;-52
2022/12/09 05:32:05;;;;;;;;;28.25;26.75;;;;;-147.17;100.00;-15917.19;5032071;28;51320;-54
2022/12/09 05:34:31;;;;;;;;;30.75;29.00;;;;;-147.17;100.00;-15917.19;5032503;28;51111;-52
2022/12/09 05:36:56;;;;;;;;;28.00;23.75;;;;;-147.17;100.00;-15917.19;5019822;28;51323;-52
2022/12/09 05:39:21;;;;;;;;;27.25;23.50;;;;;-147.17;100.00;-15917.19;5027845;28;51938;-52
2022/12/09 05:41:47;;;;;;;;;26.75;24.25;;;;;-147.17;100.00;-15917.19;5030275;28;51340;-51
2022/12/09 05:44:13;;;;;;;;;20.75;16.25;;;;;-147.17;100.00;-15917.19;5031062;28;51746;-53
2022/12/09 05:46:38;;;;;;;;;26.25;24.50;;;;;-147.17;100.00;-15917.19;5022986;28;51190;-52
2022/12/09 05:49:04;;;;;;;;;32.00;27.50;;;;;-147.17;100.00;-15917.19;5025041;28;51181;-52
2022/12/09 05:51:29;;;;;;;;;30.75;25.00;;;;;-147.17;100.00;-15917.19;5031419;28;51170;-50
2022/12/09 05:53:58;;;;;;;;;27.75;26.25;;;;;-147.17;100.00;-15917.19;5030761;28;52019;-55
2022/12/09 05:56:24;;;;;;;;;24.00;21.75;;;;;-147.17;100.00;-15917.19;5031307;28;51103;-50
2022/12/09 05:58:50;;;;;;;;;29.75;24.75;;;;;-147.17;100.00;-15917.19;5031048;28;51230;-50
2022/12/09 06:01:15;;;;;;;;;35.25;29.00;;;;;-147.17;100.00;-15917.19;5032703;28;50880;-54
2022/12/09 06:03:41;;;;;;;;;28.00;25.75;;;;;-147.17;100.00;-15917.19;5031154;28;51739;-50
2022/12/09 06:06:09;;;;;;;;;23.50;23.50;;;;;-147.17;100.00;-15917.19;5025286;28;50911;-53
2022/12/09 06:08:35;;;;;;;;;23.00;22.75;;;;;-147.17;100.00;-15917.19;5023566;28;51094;-53
2022/12/09 06:11:01;;;;;;;;;19.75;18.25;;;;;-147.17;100.00;-15917.19;5030417;28;51206;-51
2022/12/09 06:13:26;;;;;;;;;20.25;19.00;;;;;-147.17;100.00;-15917.19;5030681;28;51907;-53
2022/12/09 06:15:52;;;;;;;;;25.50;25.00;;;;;-147.17;100.00;-15917.19;5031961;28;51047;-52
2022/12/09 06:18:17;;;;;;;;;24.00;22.25;;;;;-147.17;100.00;-15917.19;5030902;28;51105;-52
2022/12/09 06:20:42;;;;;;;;;25.75;23.25;;;;;-147.17;100.00;-15917.19;5032261;28;51005;-53
2022/12/09 06:23:08;;;;;;;;;25.00;22.00;;;;;-147.17;100.00;-15917.19;5034360;28;51783;-52
2022/12/09 06:25:34;;;;;;;;;17.25;16.75;;;;;-147.17;100.00;-15917.19;5034742;28;51217;-53
2022/12/09 06:28:00;;;;;;;;;23.75;23.75;;;;;-147.17;100.00;-15917.19;5034764;28;51690;-51
2022/12/09 06:30:25;;;;;;;;;23.75;20.75;;;;;-147.17;100.00;-15917.19;5034542;28;51157;-51
2022/12/09 06:32:50;;;;;;;;;23.50;21.00;;;;;-147.17;100.00;-15917.19;5033997;28;51806;-52
2022/12/09 06:35:17;;;;;;;;;26.75;23.75;;;;;-147.17;100.00;-15917.19;5035368;28;50921;-51
2022/12/09 06:37:43;;;;;;;;;23.25;21.00;;;;;-147.17;100.00;-15917.19;5028437;28;50977;-51
2022/12/09 06:40:09;;;;;;;;;26.25;24.25;;;;;-147.17;100.00;-15917.19;5031422;28;50984;-51
2022/12/09 06:42:34;;;;;;;;;31.50;24.75;;;;;-147.17;100.00;-15917.19;5033873;28;51827;-53
2022/12/09 06:45:00;;;;;;;;;27.00;24.50;;;;;-147.17;100.00;-15917.19;5035308;28;50982;-51
2022/12/09 06:47:25;;;;;;;;;24.50;23.25;;;;;-147.17;100.00;-15917.19;5034673;28;51098;-50
2022/12/09 06:49:50;;;;;;;;;29.75;24.25;;;;;-147.17;100.00;-15917.19;5033369;28;51398;-52
2022/12/09 06:52:16;;;;;;;;;12.25;9.00;;;;;-147.17;100.00;-15917.19;5033284;28;51945;-53
2022/12/09 06:54:41;;;;;;;;;25.00;23.00;;;;;-147.17;100.00;-15917.19;5021318;28;51546;-52
2022/12/09 06:57:07;;;;;;;;;29.00;23.50;;;;;-147.17;100.00;-15917.19;5024875;28;51107;-53
2022/12/09 06:59:32;;;;;;;;;27.50;24.50;;;;;-147.17;100.00;-15917.19;5025197;28;52986;-51
2022/12/09 07:01:57;;;;;;;;;24.00;20.00;;;;;-147.17;100.00;-15917.19;5033715;28;51911;-52
2022/12/09 07:04:23;;;;;;;;;25.50;23.75;;;;;-147.17;100.00;-15917.19;5036417;28;51140;-54
2022/12/09 07:06:48;;;;;;;;;25.75;23.25;;;;;-147.17;100.00;-15917.19;5040998;28;51365;-54
2022/12/09 07:09:16;;;;;;;;;20.75;19.00;;;;;-147.17;100.00;-15917.19;5032170;28;51341;-56
2022/12/09 07:11:44;;;;;;;;;23.50;22.50;;;;;-147.17;100.00;-15917.19;5032109;28;51949;-52
2022/12/09 07:14:10;;;;;;;;;22.75;22.25;;;;;-147.17;100.00;-15917.19;5027949;28;51850;-52
2022/12/09 07:16:35;;;;;;;;;22.00;19.25;;;;;-147.17;100.00;-15917.19;5032924;28;51059;-54
2022/12/09 07:19:02;;;;;;;;;25.25;23.50;;;;;-147.17;100.00;-15917.19;5033291;28;51043;-51
2022/12/09 07:21:27;;;;;;;;;26.00;21.75;;;;;-147.17;100.00;-15917.19;5032393;28;54402;-54
2022/12/09 07:23:53;;;;;;;;;21.00;18.75;;;;;-147.17;100.00;-15917.19;5030711;28;51220;-53
2022/12/09 07:26:20;;;;;;;;;24.25;23.50;;;;;-147.17;100.00;-15917.19;5043518;28;51138;-52
2022/12/09 07:28:46;;;;;;;;;22.50;18.00;;;;;-147.17;100.00;-15917.19;5032234;28;50995;-51
2022/12/09 07:31:21;;;;;;;;;32.25;26.00;;;;;-147.17;100.00;-15917.19;5033149;28;51841;-55
2022/12/09 07:33:48;;;;;;;;;28.25;24.50;;;;;-147.17;100.00;-15917.19;5033740;28;50981;-53
2022/12/09 07:36:13;;;;;;;;;24.25;24.25;;;;;-147.17;100.00;-15917.19;5030871;28;51195;-53
2022/12/09 07:38:39;;;;;;;;;30.50;26.25;;;;;-147.17;100.00;-15917.19;5034390;28;50948;-52
2022/12/09 07:41:06;;;;;;;;;24.00;22.75;;;;;-147.17;100.00;-15917.19;5034113;28;51733;-52
2022/12/09 07:43:33;;;;;;;;;29.50;23.25;;;;;-147.17;100.00;-15917.19;5034307;28;51123;-54
2022/12/09 07:45:59;;;;;;;;;20.75;19.00;;;;;-147.17;100.00;-15917.19;5032944;28;51096;-51
2022/12/09 07:48:24;;;;;;;;;26.00;22.75;;;;;-147.17;100.00;-15917.19;5032783;28;51161;-52
2022/12/09 07:50:49;;;;;;;;;25.75;24.00;;;;;-147.17;100.00;-15917.19;5034280;28;52744;-53
2022/12/09 07:53:15;;;;;;;;;21.25;21.00;;;;;-147.17;100.00;-15917.19;5031389;28;51195;-53
2022/12/09 07:55:40;;;;;;;;;19.50;16.50;;;;;-147.17;100.00;-15917.19;5033168;28;51132;-53
2022/12/09 07:58:05;;;;;;;;;24.75;19.75;;;;;-147.17;100.00;-15917.19;5034512;28;50933;-54
2022/12/09 08:00:31;;;;;;;;;22.00;19.75;;;;;-147.17;100.00;-15917.19;5033789;28;50885;-51
2022/12/09 08:02:56;;;;;;;;;21.75;21.50;;;;;-147.17;100.00;-15917.19;5033048;28;51090;-52
2022/12/09 08:05:21;;;;;;;;;19.75;18.00;;;;;-147.17;100.00;-15917.19;5034111;28;51418;-54
2022/12/09 08:07:47;;;;;;;;;20.50;17.50;;;;;-147.17;100.00;-15917.19;5034068;28;51009;-53
2022/12/09 08:10:12;;;;;;;;;22.50;20.75;;;;;-147.17;100.00;-15917.19;5033282;28;50992;-53
2022/12/09 08:12:37;;;;;;;;;22.25;20.50;;;;;-147.17;100.00;-15917.19;5033960;28;50968;-53
2022/12/09 08:15:03;;;;;;;;;26.25;24.25;;;;;-147.17;100.00;-15917.19;5034068;28;50945;-53
2022/12/09 08:17:29;;;;;;;;;29.75;27.75;;;;;-147.17;100.00;-15917.19;5034024;28;50835;-53
2022/12/09 08:19:54;;;;;;;;;32.75;25.25;;;;;-147.17;100.00;-15917.19;5032749;28;51789;-52
2022/12/09 08:22:20;;;;;;;;;29.25;25.50;;;;;-147.17;100.00;-15917.19;5033805;28;50974;-54
2022/12/09 08:24:45;;;;;;;;;26.50;23.75;;;;;-147.17;100.00;-15917.19;5033881;28;51127;-54
2022/12/09 08:27:10;;;;;;;;;25.25;22.50;;;;;-147.17;100.00;-15917.19;5034048;28;51187;-54
2022/12/09 08:29:36;;;;;;;;;30.00;28.50;;;;;-147.17;100.00;-15917.19;5033609;28;51075;-53
2022/12/09 08:32:01;;;;;;;;;30.75;27.50;;;;;-147.17;100.00;-15917.19;5033417;28;51052;-54
2022/12/09 08:34:27;;;;;;;;;26.25;25.00;;;;;-147.17;100.00;-15917.19;5049246;28;51005;-53
2022/12/09 08:36:52;;;;;;;;;29.25;28.50;;;;;-147.17;100.00;-15917.19;5014687;28;51407;-56
2022/12/09 08:39:18;;;;;;;;;24.75;23.50;;;;;-147.17;100.00;-15917.19;5033352;28;51686;-58
2022/12/09 08:41:43;;;;;;;;;33.00;29.50;;;;;-147.17;100.00;-15917.19;5032215;28;52282;-52
2022/12/09 08:44:15;;;;;;;;;32.25;29.50;;;;;-147.17;100.00;-15917.19;5032575;28;51107;-53
2022/12/09 08:46:43;;;;;;;;;25.00;25.00;;;;;-147.17;100.00;-15917.19;5033545;28;51582;-52
2022/12/09 08:49:09;;;;;;;;;29.50;27.25;;;;;-147.17;100.00;-15917.19;5031806;28;52089;-54
2022/12/09 08:51:35;;;;;;;;;30.75;30.25;;;;;-147.17;100.00;-15917.19;5033494;28;51120;-53
2022/12/09 08:54:02;;;;;;;;;29.25;25.00;;;;;-147.17;100.00;-15917.19;5033375;28;51031;-53
2022/12/09 08:56:27;;;;;;;;;16.00;15.00;;;;;-147.17;100.00;-15917.19;5033408;28;51070;-54
2022/12/09 08:58:53;;;;;;;;;26.50;26.25;;;;;-147.17;100.00;-15917.19;5031984;28;51208;-58
2022/12/09 09:01:25;;;;;;;;;31.25;26.50;;;;;-147.17;100.00;-15917.19;5031584;28;50910;-54
2022/12/09 09:03:51;;;;;;;;;20.00;15.25;;;;;-147.17;100.00;-15917.19;5032890;28;50953;-53
2022/12/09 09:06:18;;;;;;;;;25.25;24.75;;;;;-147.17;100.00;-15917.19;5032972;28;51338;-52
2022/12/09 09:08:46;;;;;;;;;43.25;40.00;;;;;-147.17;100.00;-15917.19;5047980;28;51679;-51
2022/12/09 09:11:15;;;;;;;;;32.25;27.75;;;;;-147.17;100.00;-15917.19;5027092;28;51245;-52
2022/12/09 09:13:42;;;;;;;;;39.00;34.25;;;;;-147.17;100.00;-15917.19;5033088;28;51072;-52
2022/12/09 09:16:15;;;;;;;;;37.75;34.50;;;;;-147.17;100.00;-15917.19;5032908;28;51266;-52
2022/12/09 09:18:41;;;;;;;;;33.25;30.25;;;;;-147.17;100.00;-15917.19;5032772;28;50945;-50
2022/12/09 09:21:08;;;;;;;;;33.25;30.75;;;;;-147.17;100.00;-15917.19;5032534;28;50926;-54
2022/12/09 09:23:34;;;;;;;;;37.25;34.00;;;;;-147.17;100.00;-15917.19;5031356;28;50993;-54
2022/12/09 09:26:00;;;;;;;;;31.75;29.00;;;;;-147.17;100.00;-15917.19;5026917;28;51291;-51
2022/12/09 09:28:25;;;;;;;;;30.50;28.00;;;;;-147.17;100.00;-15917.19;5023486;28;53833;-54
2022/12/09 09:31:02;;;;;;;;;36.00;34.00;;;;;-147.17;100.00;-15917.19;5032062;28;51087;-52
2022/12/09 09:33:27;;;;;;;;;34.75;30.00;;;;;-147.17;100.00;-15917.19;5032471;28;51072;-52
2022/12/09 09:36:01;;;;;;;;;38.25;35.00;;;;;-147.17;100.00;-15917.19;5032792;28;50886;-51
2022/12/09 09:38:30;;;;;;;;;46.50;37.50;;;;;-147.17;100.00;-15917.19;5032418;28;51018;-51
2022/12/09 09:40:57;;;;;;;;;40.75;36.50;;;;;-147.17;100.00;-15917.19;5032422;28;50922;-53
2022/12/09 09:43:26;;;;;;;;;61.25;49.75;;;;;-147.17;100.00;-15917.19;5032427;28;50937;-52
2022/12/09 09:45:54;;;;;;;;;38.00;36.50;;;;;-147.17;100.00;-15917.19;5031432;28;50988;-54
2022/12/09 09:48:24;;;;;;;;;37.25;32.50;;;;;-147.17;100.00;-15917.19;5032011;28;51805;-53
2022/12/09 09:51:01;;;;;;;;;43.75;39.25;;;;;-147.17;100.00;-15917.19;5032302;28;50948;-60
2022/12/09 09:53:29;;;;;;;;;29.50;28.00;;;;;-147.17;100.00;-15917.19;5031036;28;51164;-51
2022/12/09 09:56:03;;;;;;;;;36.75;30.75;;;;;-147.17;100.00;-15917.19;5032343;28;51299;-51
2022/12/09 09:58:38;;;;;;;;;35.25;31.00;;;;;-147.17;100.00;-15917.19;5032317;28;51382;-52
2022/12/09 10:01:15;;;;;;;;;36.00;31.75;;;;;-147.17;100.00;-15917.19;5032019;28;51122;-53
2022/12/09 10:03:49;;;;;;;;;30.75;26.50;;;;;-147.17;100.00;-15917.19;5032460;28;51117;-52
2022/12/09 10:06:52;;;;;;;;;45.50;40.25;;;;;-147.17;100.00;-15917.19;5032187;28;50967;-56
2022/12/09 10:09:50;;;;;;;;;43.25;36.50;;;;;-147.17;100.00;-15917.19;5027193;28;51331;-53
2022/12/09 10:12:17;;;;;;;;;38.25;36.00;;;;;-147.17;100.00;-15917.19;5025241;28;51064;-53
2022/12/09 10:15:07;;;;;;;;;31.75;28.50;;;;;-147.17;100.00;-15917.19;5031893;28;50985;-53
2022/12/09 10:17:34;;;;;;;;;32.75;28.00;;;;;-147.17;100.00;-15917.19;5030520;28;51190;-53
2022/12/09 10:20:14;;;;;;;;;33.25;26.00;;;;;-147.17;100.00;-15917.19;5031906;28;51784;-52
2022/12/09 10:23:02;;;;;;;;;31.00;28.75;;;;;-147.17;100.00;-15917.19;5031763;28;51106;-53
2022/12/09 10:25:29;;;;;;;;;39.75;37.50;;;;;-147.17;100.00;-15917.19;5027063;28;51347;-52
2022/12/09 10:28:05;;;;;;;;;46.75;40.25;;;;;-147.17;100.00;-15917.19;5032213;28;51127;-53
2022/12/09 10:30:31;;;;;;;;;42.00;39.00;;;;;-147.17;100.00;-15917.19;5030290;28;50975;-55
2022/12/09 10:32:56;;;;;;;;;42.50;34.25;;;;;-147.17;100.00;-15917.19;5031805;28;50944;-54
2022/12/09 10:35:27;;;;;;;;;42.00;39.50;;;;;-147.17;100.00;-15917.19;5031523;28;50939;-53
2022/12/09 10:37:55;;;;;;;;;48.00;40.75;;;;;-147.17;100.00;-15917.19;5031816;28;51028;-53
2022/12/09 10:40:42;;;;;;;;;44.75;36.00;;;;;-147.17;100.00;-15917.19;5031394;28;52963;-53
2022/12/09 10:43:39;;;;;;;;;40.25;38.00;;;;;-147.17;100.00;-15917.19;5031863;28;50988;-55
2022/12/09 10:46:09;;;;;;;;;41.50;38.25;;;;;-147.17;100.00;-15917.19;5030986;28;51092;-54
2022/12/09 10:48:36;;;;;;;;;39.00;36.00;;;;;-147.17;100.00;-15917.19;5031256;28;51362;-54
2022/12/09 10:51:10;;;;;;;;;40.50;37.25;;;;;-147.17;100.00;-15917.19;5031307;28;52056;-54
2022/12/09 10:53:36;;;;;;;;;47.25;39.50;;;;;-147.17;100.00;-15917.19;5031123;28;50951;-54